sensor_id;sensor_type;location;lat;lon;timestamp;pressure;altitude;pressure_sealevel;temperature;humidity
46846;BME280;33947;46.804;134.252;2022-12-18T00:01:28;100652.84;;;-26.17;53.71
46846;BME280;33947;46.804;134.252;2022-12-18T00:04:35;100643.59;;;-25.53;52.87
46846;BME280;33947;46.804;134.252;2022-12-18T00:07:39;100653.84;;;-24.84;54.27
46846;BME280;33947;46.804;134.252;2022-12-18T00:10:45;100628.69;;;-23.78;51.96
46846;BME280;33947;46.804;134.252;2022-12-18T00:13:50;100657.69;;;-23.03;50.29
46846;BME280;33947;46.804;134.252;2022-12-18T00:16:58;100586.13;;;-22.66;47.88
46846;BME280;33947;46.804;134.252;2022-12-18T00:20:04;100628.31;;;-22.06;47.11
46846;BME280;33947;46.804;134.252;2022-12-18T00:23:10;100632.13;;;-22.10;47.23
46846;BME280;33947;46.804;134.252;2022-12-18T00:26:25;100660.41;;;-21.38;45.93
46846;BME280;33947;46.804;134.252;2022-12-18T00:29:33;100657.97;;;-21.03;46.18
46846;BME280;33947;46.804;134.252;2022-12-18T00:32:41;100628.19;;;-20.72;45.90
46846;BME280;33947;46.804;134.252;2022-12-18T00:35:45;100618.69;;;-20.13;44.91
46846;BME280;33947;46.804;134.252;2022-12-18T00:38:50;100629.09;;;-20.10;42.91
46846;BME280;33947;46.804;134.252;2022-12-18T00:41:55;100627.59;;;-20.07;43.56
46846;BME280;33947;46.804;134.252;2022-12-18T00:45:18;100629.97;;;-19.91;43.12
46846;BME280;33947;46.804;134.252;2022-12-18T00:48:27;100629.38;;;-20.15;41.68
46846;BME280;33947;46.804;134.252;2022-12-18T00:51:32;100621.72;;;-21.55;44.89
46846;BME280;33947;46.804;134.252;2022-12-18T00:54:36;100636.34;;;-20.65;45.19
46846;BME280;33947;46.804;134.252;2022-12-18T00:57:41;100625.84;;;-20.26;45.03
46846;BME280;33947;46.804;134.252;2022-12-18T01:00:47;100627.97;;;-19.68;43.42
46846;BME280;33947;46.804;134.252;2022-12-18T01:03:52;100640.06;;;-19.37;42.67
46846;BME280;33947;46.804;134.252;2022-12-18T01:06:59;100632.59;;;-18.99;41.64
46846;BME280;33947;46.804;134.252;2022-12-18T01:10:05;100609.25;;;-19.05;42.20
46846;BME280;33947;46.804;134.252;2022-12-18T01:13:10;100620.41;;;-18.17;42.10
46846;BME280;33947;46.804;134.252;2022-12-18T01:16:16;100623.41;;;-17.92;40.83
46846;BME280;33947;46.804;134.252;2022-12-18T01:19:21;100600.91;;;-19.41;40.97
46846;BME280;33947;46.804;134.252;2022-12-18T01:22:26;100619.47;;;-19.77;43.61
46846;BME280;33947;46.804;134.252;2022-12-18T01:25:31;100575.88;;;-20.46;43.04
46846;BME280;33947;46.804;134.252;2022-12-18T01:28:36;100614.84;;;-20.44;44.16
46846;BME280;33947;46.804;134.252;2022-12-18T01:31:42;100587.78;;;-20.72;45.66
46846;BME280;33947;46.804;134.252;2022-12-18T01:34:47;100591.63;;;-20.14;45.50
46846;BME280;33947;46.804;134.252;2022-12-18T01:37:55;100597.63;;;-19.68;44.86
46846;BME280;33947;46.804;134.252;2022-12-18T01:41:01;100569.50;;;-19.34;44.58
46846;BME280;33947;46.804;134.252;2022-12-18T01:47:50;100578.69;;;-18.98;42.88
46846;BME280;33947;46.804;134.252;2022-12-18T01:50:55;100587.56;;;-19.21;43.09
46846;BME280;33947;46.804;134.252;2022-12-18T01:54:03;100568.84;;;-18.27;44.68
46846;BME280;33947;46.804;134.252;2022-12-18T01:57:07;100545.75;;;-17.71;41.80
46846;BME280;33947;46.804;134.252;2022-12-18T02:00:18;100573.44;;;-19.46;42.50
46846;BME280;33947;46.804;134.252;2022-12-18T02:03:26;100556.53;;;-20.11;43.45
46846;BME280;33947;46.804;134.252;2022-12-18T02:06:40;100524.22;;;-19.31;43.47
46846;BME280;33947;46.804;134.252;2022-12-18T02:10:13;100539.22;;;-19.04;45.12
46846;BME280;33947;46.804;134.252;2022-12-18T02:20:20;100542.78;;;-19.02;43.94
46846;BME280;33947;46.804;134.252;2022-12-18T02:23:52;100535.41;;;-19.10;45.12
46846;BME280;33947;46.804;134.252;2022-12-18T02:27:05;100537.13;;;-19.56;45.24
46846;BME280;33947;46.804;134.252;2022-12-18T02:30:10;100516.38;;;-18.77;45.25
46846;BME280;33947;46.804;134.252;2022-12-18T02:33:17;100491.13;;;-19.04;45.06
46846;BME280;33947;46.804;134.252;2022-12-18T02:36:28;100520.47;;;-18.87;44.42
46846;BME280;33947;46.804;134.252;2022-12-18T02:39:36;100518.31;;;-19.40;46.08
46846;BME280;33947;46.804;134.252;2022-12-18T02:42:41;100506.38;;;-19.13;46.16
46846;BME280;33947;46.804;134.252;2022-12-18T02:46:00;100478.66;;;-19.31;45.88
46846;BME280;33947;46.804;134.252;2022-12-18T02:49:38;100492.03;;;-19.51;45.95
46846;BME280;33947;46.804;134.252;2022-12-18T02:52:56;100492.78;;;-20.17;47.81
46846;BME280;33947;46.804;134.252;2022-12-18T02:56:06;100457.38;;;-20.62;49.35
46846;BME280;33947;46.804;134.252;2022-12-18T02:59:21;100461.69;;;-19.60;49.49
46846;BME280;33947;46.804;134.252;2022-12-18T03:06:10;100456.75;;;-19.49;48.07
46846;BME280;33947;46.804;134.252;2022-12-18T03:09:24;100440.75;;;-19.40;48.07
46846;BME280;33947;46.804;134.252;2022-12-18T03:12:37;100464.00;;;-18.86;47.47
46846;BME280;33947;46.804;134.252;2022-12-18T03:15:50;100459.28;;;-18.03;47.04
46846;BME280;33947;46.804;134.252;2022-12-18T03:19:04;100454.38;;;-19.10;46.78
46846;BME280;33947;46.804;134.252;2022-12-18T03:22:12;100457.88;;;-18.99;47.53
46846;BME280;33947;46.804;134.252;2022-12-18T03:25:25;100438.97;;;-19.22;46.75
46846;BME280;33947;46.804;134.252;2022-12-18T03:28:35;100444.59;;;-19.15;46.57
46846;BME280;33947;46.804;134.252;2022-12-18T03:31:58;100445.50;;;-19.15;46.77
46846;BME280;33947;46.804;134.252;2022-12-18T03:35:08;100439.72;;;-19.23;46.26
46846;BME280;33947;46.804;134.252;2022-12-18T03:38:15;100454.78;;;-19.43;46.28
46846;BME280;33947;46.804;134.252;2022-12-18T03:41:42;100443.38;;;-19.10;47.27
46846;BME280;33947;46.804;134.252;2022-12-18T03:45:46;100438.59;;;-19.26;46.15
46846;BME280;33947;46.804;134.252;2022-12-18T03:48:48;100424.28;;;-19.07;47.62
46846;BME280;33947;46.804;134.252;2022-12-18T03:52:05;100432.66;;;-19.55;47.61
46846;BME280;33947;46.804;134.252;2022-12-18T03:55:12;100377.81;;;-19.07;47.44
46846;BME280;33947;46.804;134.252;2022-12-18T03:58:21;100420.41;;;-19.69;47.08
46846;BME280;33947;46.804;134.252;2022-12-18T04:01:46;100413.06;;;-19.85;47.17
46846;BME280;33947;46.804;134.252;2022-12-18T04:04:53;100413.69;;;-19.88;48.43
46846;BME280;33947;46.804;134.252;2022-12-18T04:08:04;100405.31;;;-19.59;48.20
46846;BME280;33947;46.804;134.252;2022-12-18T04:11:13;100406.81;;;-19.61;49.08
46846;BME280;33947;46.804;134.252;2022-12-18T04:14:20;100412.84;;;-19.31;48.86
46846;BME280;33947;46.804;134.252;2022-12-18T04:17:28;100405.69;;;-19.07;49.12
46846;BME280;33947;46.804;134.252;2022-12-18T04:20:33;100418.19;;;-19.09;47.21
46846;BME280;33947;46.804;134.252;2022-12-18T04:23:38;100413.13;;;-19.47;47.41
46846;BME280;33947;46.804;134.252;2022-12-18T04:26:43;100422.91;;;-19.03;48.09
46846;BME280;33947;46.804;134.252;2022-12-18T04:29:51;100412.16;;;-18.31;45.98
46846;BME280;33947;46.804;134.252;2022-12-18T04:32:56;100419.41;;;-18.36;45.60
46846;BME280;33947;46.804;134.252;2022-12-18T04:36:00;100406.41;;;-18.49;45.78
46846;BME280;33947;46.804;134.252;2022-12-18T04:39:05;100414.41;;;-19.23;46.98
46846;BME280;33947;46.804;134.252;2022-12-18T04:42:10;100439.91;;;-19.49;48.06
46846;BME280;33947;46.804;134.252;2022-12-18T04:45:16;100420.97;;;-20.19;49.16
46846;BME280;33947;46.804;134.252;2022-12-18T04:48:21;100440.88;;;-19.85;49.45
46846;BME280;33947;46.804;134.252;2022-12-18T04:51:28;100434.66;;;-20.17;49.72
46846;BME280;33947;46.804;134.252;2022-12-18T04:54:33;100439.72;;;-20.26;49.47
46846;BME280;33947;46.804;134.252;2022-12-18T04:57:37;100433.44;;;-19.84;49.92
46846;BME280;33947;46.804;134.252;2022-12-18T05:00:43;100433.72;;;-20.09;50.10
46846;BME280;33947;46.804;134.252;2022-12-18T05:03:47;100447.22;;;-20.08;50.29
46846;BME280;33947;46.804;134.252;2022-12-18T05:06:52;100432.03;;;-20.36;49.42
46846;BME280;33947;46.804;134.252;2022-12-18T05:09:57;100447.03;;;-20.38;50.39
46846;BME280;33947;46.804;134.252;2022-12-18T05:13:01;100431.78;;;-20.11;50.26
46846;BME280;33947;46.804;134.252;2022-12-18T05:16:06;100448.91;;;-20.17;50.62
46846;BME280;33947;46.804;134.252;2022-12-18T05:19:11;100417.78;;;-19.80;50.72
46846;BME280;33947;46.804;134.252;2022-12-18T05:22:15;100451.13;;;-20.12;50.84
46846;BME280;33947;46.804;134.252;2022-12-18T05:25:21;100418.66;;;-20.26;51.20
46846;BME280;33947;46.804;134.252;2022-12-18T05:28:27;100452.41;;;-19.98;50.41
46846;BME280;33947;46.804;134.252;2022-12-18T05:31:32;100386.03;;;-20.51;50.18
46846;BME280;33947;46.804;134.252;2022-12-18T05:34:41;100445.53;;;-19.90;50.05
46846;BME280;33947;46.804;134.252;2022-12-18T05:37:46;100428.19;;;-19.76;49.19
46846;BME280;33947;46.804;134.252;2022-12-18T05:40:51;100452.50;;;-19.59;49.70
46846;BME280;33947;46.804;134.252;2022-12-18T05:43:56;100427.28;;;-19.30;49.04
46846;BME280;33947;46.804;134.252;2022-12-18T05:47:01;100448.38;;;-19.68;48.09
46846;BME280;33947;46.804;134.252;2022-12-18T05:50:06;100406.25;;;-20.60;49.02
46846;BME280;33947;46.804;134.252;2022-12-18T05:53:11;100465.94;;;-20.43;49.40
46846;BME280;33947;46.804;134.252;2022-12-18T05:56:19;100462.84;;;-20.58;50.25
46846;BME280;33947;46.804;134.252;2022-12-18T05:59:24;100467.25;;;-20.29;50.06
46846;BME280;33947;46.804;134.252;2022-12-18T06:02:29;100457.72;;;-20.31;49.35
46846;BME280;33947;46.804;134.252;2022-12-18T06:05:39;100458.72;;;-20.12;48.99
46846;BME280;33947;46.804;134.252;2022-12-18T06:08:45;100454.22;;;-20.42;49.70
46846;BME280;33947;46.804;134.252;2022-12-18T06:11:51;100457.16;;;-20.38;49.91
46846;BME280;33947;46.804;134.252;2022-12-18T06:14:56;100452.00;;;-20.57;49.38
46846;BME280;33947;46.804;134.252;2022-12-18T06:18:01;100457.97;;;-20.74;49.65
46846;BME280;33947;46.804;134.252;2022-12-18T06:21:05;100465.91;;;-20.25;49.71
46846;BME280;33947;46.804;134.252;2022-12-18T06:24:10;100434.19;;;-20.58;50.36
46846;BME280;33947;46.804;134.252;2022-12-18T06:27:15;100462.63;;;-20.96;50.79
46846;BME280;33947;46.804;134.252;2022-12-18T06:30:19;100463.06;;;-21.09;49.40
46846;BME280;33947;46.804;134.252;2022-12-18T06:33:26;100411.41;;;-21.30;51.17
46846;BME280;33947;46.804;134.252;2022-12-18T06:36:31;100451.19;;;-21.10;50.44
46846;BME280;33947;46.804;134.252;2022-12-18T06:39:37;100465.44;;;-21.37;50.73
46846;BME280;33947;46.804;134.252;2022-12-18T06:42:42;100478.78;;;-21.38;51.07
46846;BME280;33947;46.804;134.252;2022-12-18T06:45:46;100473.09;;;-21.62;50.98
46846;BME280;33947;46.804;134.252;2022-12-18T06:48:56;100464.78;;;-21.61;51.63
46846;BME280;33947;46.804;134.252;2022-12-18T06:52:00;100475.78;;;-21.69;51.17
46846;BME280;33947;46.804;134.252;2022-12-18T06:55:06;100473.38;;;-21.67;51.69
46846;BME280;33947;46.804;134.252;2022-12-18T06:58:14;100497.28;;;-21.46;51.39
46846;BME280;33947;46.804;134.252;2022-12-18T07:01:19;100497.28;;;-21.46;51.50
46846;BME280;33947;46.804;134.252;2022-12-18T07:04:29;100500.09;;;-21.61;50.74
46846;BME280;33947;46.804;134.252;2022-12-18T07:07:34;100502.16;;;-22.08;51.64
46846;BME280;33947;46.804;134.252;2022-12-18T07:10:45;100512.84;;;-22.10;51.18
46846;BME280;33947;46.804;134.252;2022-12-18T07:13:54;100494.22;;;-21.95;51.34
46846;BME280;33947;46.804;134.252;2022-12-18T07:17:02;100505.16;;;-21.52;51.17
46846;BME280;33947;46.804;134.252;2022-12-18T07:20:09;100496.72;;;-21.95;51.14
46846;BME280;33947;46.804;134.252;2022-12-18T07:23:13;100499.94;;;-22.14;52.13
46846;BME280;33947;46.804;134.252;2022-12-18T07:26:20;100492.81;;;-22.09;51.55
46846;BME280;33947;46.804;134.252;2022-12-18T07:29:25;100481.63;;;-22.20;51.52
46846;BME280;33947;46.804;134.252;2022-12-18T07:32:30;100494.47;;;-22.34;52.45
46846;BME280;33947;46.804;134.252;2022-12-18T07:35:35;100491.31;;;-22.49;52.94
46846;BME280;33947;46.804;134.252;2022-12-18T07:38:42;100471.91;;;-22.42;52.64
46846;BME280;33947;46.804;134.252;2022-12-18T07:41:46;100492.88;;;-22.00;52.67
46846;BME280;33947;46.804;134.252;2022-12-18T07:45:11;100478.81;;;-22.23;51.99
46846;BME280;33947;46.804;134.252;2022-12-18T07:48:15;100493.72;;;-22.08;52.74
46846;BME280;33947;46.804;134.252;2022-12-18T07:51:20;100497.34;;;-22.22;52.83
46846;BME280;33947;46.804;134.252;2022-12-18T07:54:25;100486.59;;;-22.37;52.63
46846;BME280;33947;46.804;134.252;2022-12-18T07:57:29;100479.63;;;-22.49;53.80
46846;BME280;33947;46.804;134.252;2022-12-18T08:01:02;100486.69;;;-22.53;53.32
46846;BME280;33947;46.804;134.252;2022-12-18T08:04:08;100496.38;;;-22.65;53.93
46846;BME280;33947;46.804;134.252;2022-12-18T08:07:13;100495.72;;;-22.55;54.65
46846;BME280;33947;46.804;134.252;2022-12-18T08:10:18;100502.41;;;-22.47;53.63
46846;BME280;33947;46.804;134.252;2022-12-18T08:13:23;100496.75;;;-22.53;53.54
46846;BME280;33947;46.804;134.252;2022-12-18T08:16:27;100509.59;;;-22.59;53.41
46846;BME280;33947;46.804;134.252;2022-12-18T08:19:32;100514.00;;;-22.65;53.83
46846;BME280;33947;46.804;134.252;2022-12-18T08:22:38;100515.72;;;-22.73;54.09
46846;BME280;33947;46.804;134.252;2022-12-18T08:25:43;100514.84;;;-22.74;54.38
46846;BME280;33947;46.804;134.252;2022-12-18T08:28:50;100530.47;;;-22.60;54.18
46846;BME280;33947;46.804;134.252;2022-12-18T08:31:55;100504.66;;;-22.66;54.20
46846;BME280;33947;46.804;134.252;2022-12-18T08:34:59;100522.84;;;-22.44;53.63
46846;BME280;33947;46.804;134.252;2022-12-18T08:38:04;100530.97;;;-22.22;53.08
46846;BME280;33947;46.804;134.252;2022-12-18T08:41:11;100527.94;;;-22.35;52.68
46846;BME280;33947;46.804;134.252;2022-12-18T08:44:16;100524.06;;;-22.65;53.11
46846;BME280;33947;46.804;134.252;2022-12-18T08:47:41;100534.88;;;-22.42;52.94
46846;BME280;33947;46.804;134.252;2022-12-18T08:50:55;100492.50;;;-22.70;52.93
46846;BME280;33947;46.804;134.252;2022-12-18T08:54:00;100547.38;;;-22.75;52.89
46846;BME280;33947;46.804;134.252;2022-12-18T08:57:06;100553.63;;;-22.72;53.41
46846;BME280;33947;46.804;134.252;2022-12-18T09:00:11;100552.78;;;-22.88;54.14
46846;BME280;33947;46.804;134.252;2022-12-18T09:03:18;100547.47;;;-22.82;53.97
46846;BME280;33947;46.804;134.252;2022-12-18T09:06:23;100556.56;;;-22.92;53.66
46846;BME280;33947;46.804;134.252;2022-12-18T09:09:27;100557.53;;;-22.82;53.21
46846;BME280;33947;46.804;134.252;2022-12-18T09:12:32;100563.38;;;-22.91;53.87
46846;BME280;33947;46.804;134.252;2022-12-18T09:15:43;100565.41;;;-22.95;53.64
46846;BME280;33947;46.804;134.252;2022-12-18T09:18:49;100547.72;;;-23.20;54.03
46846;BME280;33947;46.804;134.252;2022-12-18T09:21:53;100568.00;;;-23.03;54.43
46846;BME280;33947;46.804;134.252;2022-12-18T09:24:57;100573.59;;;-22.73;53.64
46846;BME280;33947;46.804;134.252;2022-12-18T09:28:06;100559.00;;;-23.01;53.39
46846;BME280;33947;46.804;134.252;2022-12-18T09:31:12;100580.03;;;-22.84;53.31
46846;BME280;33947;46.804;134.252;2022-12-18T09:34:20;100562.25;;;-22.86;52.88
46846;BME280;33947;46.804;134.252;2022-12-18T09:37:25;100578.41;;;-22.83;52.59
46846;BME280;33947;46.804;134.252;2022-12-18T09:40:35;100576.84;;;-22.74;52.38
46846;BME280;33947;46.804;134.252;2022-12-18T09:43:52;100573.78;;;-23.04;52.60
46846;BME280;33947;46.804;134.252;2022-12-18T09:50:35;100591.63;;;-22.61;51.77
46846;BME280;33947;46.804;134.252;2022-12-18T09:53:44;100586.59;;;-23.09;51.98
46846;BME280;33947;46.804;134.252;2022-12-18T09:56:51;100580.44;;;-23.04;52.38
46846;BME280;33947;46.804;134.252;2022-12-18T10:00:25;100588.22;;;-23.26;53.12
46846;BME280;33947;46.804;134.252;2022-12-18T10:03:28;100591.38;;;-23.20;52.87
46846;BME280;33947;46.804;134.252;2022-12-18T10:07:12;100595.13;;;-23.32;53.18
46846;BME280;33947;46.804;134.252;2022-12-18T10:14:04;100592.75;;;-23.31;53.29
46846;BME280;33947;46.804;134.252;2022-12-18T10:21:15;100606.66;;;-22.86;51.46
46846;BME280;33947;46.804;134.252;2022-12-18T10:27:42;100591.47;;;-23.27;52.92
46846;BME280;33947;46.804;134.252;2022-12-18T10:30:46;100601.75;;;-23.17;52.24
46846;BME280;33947;46.804;134.252;2022-12-18T10:33:53;100584.19;;;-23.56;53.43
46846;BME280;33947;46.804;134.252;2022-12-18T10:37:01;100589.56;;;-23.21;52.35
46846;BME280;33947;46.804;134.252;2022-12-18T10:40:15;100601.13;;;-23.07;51.77
46846;BME280;33947;46.804;134.252;2022-12-18T10:43:39;100613.22;;;-22.95;50.87
46846;BME280;33947;46.804;134.252;2022-12-18T10:46:46;100610.03;;;-23.02;50.48
46846;BME280;33947;46.804;134.252;2022-12-18T10:49:53;100606.16;;;-23.07;50.77
46846;BME280;33947;46.804;134.252;2022-12-18T10:53:01;100618.91;;;-23.05;51.13
46846;BME280;33947;46.804;134.252;2022-12-18T10:56:07;100596.06;;;-23.23;51.32
46846;BME280;33947;46.804;134.252;2022-12-18T10:59:14;100599.56;;;-23.13;51.19
46846;BME280;33947;46.804;134.252;2022-12-18T11:02:27;100611.50;;;-23.04;51.28
46846;BME280;33947;46.804;134.252;2022-12-18T11:05:35;100608.59;;;-22.99;51.13
46846;BME280;33947;46.804;134.252;2022-12-18T11:08:42;100461.03;;;-24.04;50.95
46846;BME280;33947;46.804;134.252;2022-12-18T11:11:56;100603.25;;;-23.58;52.98
46846;BME280;33947;46.804;134.252;2022-12-18T11:15:01;100586.50;;;-23.74;53.87
46846;BME280;33947;46.804;134.252;2022-12-18T11:18:17;100590.81;;;-23.96;55.32
46846;BME280;33947;46.804;134.252;2022-12-18T11:21:25;100609.84;;;-23.51;54.70
46846;BME280;33947;46.804;134.252;2022-12-18T11:24:35;100620.75;;;-23.51;53.97
46846;BME280;33947;46.804;134.252;2022-12-18T11:27:40;100606.25;;;-23.53;53.61
46846;BME280;33947;46.804;134.252;2022-12-18T11:30:44;100609.00;;;-23.59;54.34
46846;BME280;33947;46.804;134.252;2022-12-18T11:33:56;100591.44;;;-23.43;54.91
46846;BME280;33947;46.804;134.252;2022-12-18T11:37:23;100560.59;;;-23.65;53.79
46846;BME280;33947;46.804;134.252;2022-12-18T11:40:36;100596.91;;;-23.31;53.92
46846;BME280;33947;46.804;134.252;2022-12-18T11:43:56;100605.75;;;-23.03;53.50
46846;BME280;33947;46.804;134.252;2022-12-18T11:53:41;100608.81;;;-23.37;55.23
46846;BME280;33947;46.804;134.252;2022-12-18T11:57:27;100613.38;;;-23.10;54.87
46846;BME280;33947;46.804;134.252;2022-12-18T12:00:28;100601.63;;;-22.86;54.16
46846;BME280;33947;46.804;134.252;2022-12-18T12:03:39;100618.66;;;-22.83;54.79
46846;BME280;33947;46.804;134.252;2022-12-18T12:31:07;100635.34;;;-21.95;53.31
46846;BME280;33947;46.804;134.252;2022-12-18T12:34:22;100632.66;;;-21.96;52.96
46846;BME280;33947;46.804;134.252;2022-12-18T12:41:08;100650.09;;;-22.23;53.83
46846;BME280;33947;46.804;134.252;2022-12-18T12:44:37;100626.34;;;-21.84;52.57
46846;BME280;33947;46.804;134.252;2022-12-18T12:47:44;100617.34;;;-22.23;53.29
46846;BME280;33947;46.804;134.252;2022-12-18T12:50:52;100609.09;;;-22.38;53.90
46846;BME280;33947;46.804;134.252;2022-12-18T12:53:58;100634.00;;;-22.16;53.57
46846;BME280;33947;46.804;134.252;2022-12-18T12:57:16;100614.84;;;-21.98;52.28
46846;BME280;33947;46.804;134.252;2022-12-18T13:00:35;100612.94;;;-22.17;53.65
46846;BME280;33947;46.804;134.252;2022-12-18T13:07:12;100630.69;;;-22.24;53.97
46846;BME280;33947;46.804;134.252;2022-12-18T13:13:53;100614.66;;;-22.49;54.08
46846;BME280;33947;46.804;134.252;2022-12-18T13:20:33;100633.38;;;-22.38;54.83
46846;BME280;33947;46.804;134.252;2022-12-18T13:23:38;100620.16;;;-22.45;54.48
46846;BME280;33947;46.804;134.252;2022-12-18T13:26:44;100635.28;;;-22.20;53.72
46846;BME280;33947;46.804;134.252;2022-12-18T13:29:48;100634.47;;;-21.95;52.71
46846;BME280;33947;46.804;134.252;2022-12-18T13:36:30;100638.66;;;-21.87;52.63
46846;BME280;33947;46.804;134.252;2022-12-18T13:39:36;100625.44;;;-21.85;51.86
46846;BME280;33947;46.804;134.252;2022-12-18T13:42:41;100644.41;;;-22.29;53.01
46846;BME280;33947;46.804;134.252;2022-12-18T13:46:27;100640.75;;;-22.24;53.70
46846;BME280;33947;46.804;134.252;2022-12-18T13:49:39;100634.84;;;-22.40;54.53
46846;BME280;33947;46.804;134.252;2022-12-18T13:52:45;100598.84;;;-22.64;54.46
46846;BME280;33947;46.804;134.252;2022-12-18T13:55:49;100645.69;;;-22.74;55.20
46846;BME280;33947;46.804;134.252;2022-12-18T13:59:25;100639.69;;;-22.83;56.10
46846;BME280;33947;46.804;134.252;2022-12-18T14:02:30;100644.56;;;-22.68;55.38
46846;BME280;33947;46.804;134.252;2022-12-18T14:05:37;100634.38;;;-22.93;56.87
46846;BME280;33947;46.804;134.252;2022-12-18T14:08:46;100637.22;;;-23.22;58.27
46846;BME280;33947;46.804;134.252;2022-12-18T14:11:52;100623.22;;;-23.04;57.99
46846;BME280;33947;46.804;134.252;2022-12-18T14:21:37;100626.50;;;-22.96;57.90
46846;BME280;33947;46.804;134.252;2022-12-18T14:24:42;100635.22;;;-22.86;58.02
46846;BME280;33947;46.804;134.252;2022-12-18T14:27:50;100634.94;;;-23.12;58.33
46846;BME280;33947;46.804;134.252;2022-12-18T14:30:55;100633.53;;;-22.62;58.09
46846;BME280;33947;46.804;134.252;2022-12-18T14:34:00;100628.91;;;-22.50;57.11
46846;BME280;33947;46.804;134.252;2022-12-18T14:37:04;100615.13;;;-22.45;55.93
46846;BME280;33947;46.804;134.252;2022-12-18T14:40:13;100623.00;;;-22.42;55.54
46846;BME280;33947;46.804;134.252;2022-12-18T14:43:18;100611.16;;;-22.43;55.04
46846;BME280;33947;46.804;134.252;2022-12-18T14:46:39;100644.06;;;-22.16;54.35
46846;BME280;33947;46.804;134.252;2022-12-18T14:49:48;100634.56;;;-22.19;54.27
46846;BME280;33947;46.804;134.252;2022-12-18T14:52:53;100633.63;;;-22.28;55.48
46846;BME280;33947;46.804;134.252;2022-12-18T14:55:57;100622.56;;;-22.62;56.21
46846;BME280;33947;46.804;134.252;2022-12-18T14:59:05;100641.41;;;-22.75;57.05
46846;BME280;33947;46.804;134.252;2022-12-18T15:05:31;100631.28;;;-22.43;56.67
46846;BME280;33947;46.804;134.252;2022-12-18T15:08:36;100633.94;;;-22.41;55.90
46846;BME280;33947;46.804;134.252;2022-12-18T15:14:45;100645.69;;;-22.74;56.84
46846;BME280;33947;46.804;134.252;2022-12-18T15:17:57;100637.94;;;-22.43;56.04
46846;BME280;33947;46.804;134.252;2022-12-18T15:21:10;100634.91;;;-22.73;55.97
46846;BME280;33947;46.804;134.252;2022-12-18T15:24:29;100641.22;;;-22.92;56.99
46846;BME280;33947;46.804;134.252;2022-12-18T15:27:36;100650.41;;;-22.77;56.07
46846;BME280;33947;46.804;134.252;2022-12-18T15:31:39;100654.25;;;-23.04;56.92
46846;BME280;33947;46.804;134.252;2022-12-18T15:34:25;100658.06;;;-23.23;57.10
46846;BME280;33947;46.804;134.252;2022-12-18T15:37:30;100577.34;;;-23.73;57.41
46846;BME280;33947;46.804;134.252;2022-12-18T15:40:34;100648.72;;;-23.40;57.99
46846;BME280;33947;46.804;134.252;2022-12-18T15:43:41;100653.69;;;-23.17;57.60
46846;BME280;33947;46.804;134.252;2022-12-18T15:46:46;100656.06;;;-23.03;57.03
46846;BME280;33947;46.804;134.252;2022-12-18T15:49:51;100649.00;;;-22.98;56.37
46846;BME280;33947;46.804;134.252;2022-12-18T15:52:55;100657.34;;;-23.22;56.73
46846;BME280;33947;46.804;134.252;2022-12-18T15:56:00;100638.25;;;-23.36;56.31
46846;BME280;33947;46.804;134.252;2022-12-18T15:59:23;100638.00;;;-23.15;56.42
46846;BME280;33947;46.804;134.252;2022-12-18T16:02:27;100649.41;;;-23.02;55.56
46846;BME280;33947;46.804;134.252;2022-12-18T16:05:32;100621.88;;;-23.17;55.04
46846;BME280;33947;46.804;134.252;2022-12-18T16:08:37;100645.16;;;-23.73;56.18
46846;BME280;33947;46.804;134.252;2022-12-18T16:11:44;100653.94;;;-23.93;56.43
46846;BME280;33947;46.804;134.252;2022-12-18T16:14:51;100661.47;;;-23.93;57.28
46846;BME280;33947;46.804;134.252;2022-12-18T16:17:55;100656.66;;;-23.75;56.69
46846;BME280;33947;46.804;134.252;2022-12-18T16:20:59;100654.97;;;-23.60;57.53
46846;BME280;33947;46.804;134.252;2022-12-18T16:24:04;100659.25;;;-23.36;56.50
46846;BME280;33947;46.804;134.252;2022-12-18T16:27:09;100654.66;;;-23.24;55.57
46846;BME280;33947;46.804;134.252;2022-12-18T16:30:19;100667.13;;;-23.33;55.09
46846;BME280;33947;46.804;134.252;2022-12-18T16:33:24;100675.00;;;-23.53;55.75
46846;BME280;33947;46.804;134.252;2022-12-18T16:36:29;100665.84;;;-23.52;55.91
46846;BME280;33947;46.804;134.252;2022-12-18T16:39:34;100682.53;;;-23.53;56.50
46846;BME280;33947;46.804;134.252;2022-12-18T16:42:42;100665.72;;;-23.61;56.65
46846;BME280;33947;46.804;134.252;2022-12-18T16:45:46;100685.44;;;-23.34;57.08
46846;BME280;33947;46.804;134.252;2022-12-18T16:48:51;100677.69;;;-23.51;56.02
46846;BME280;33947;46.804;134.252;2022-12-18T16:51:56;100694.91;;;-23.47;56.54
46846;BME280;33947;46.804;134.252;2022-12-18T16:55:04;100700.34;;;-23.12;56.46
46846;BME280;33947;46.804;134.252;2022-12-18T16:58:08;100689.94;;;-23.15;57.25
46846;BME280;33947;46.804;134.252;2022-12-18T17:01:13;100704.66;;;-23.11;58.42
46846;BME280;33947;46.804;134.252;2022-12-18T17:04:18;100720.34;;;-22.97;57.95
46846;BME280;33947;46.804;134.252;2022-12-18T17:07:23;100722.31;;;-22.95;58.93
46846;BME280;33947;46.804;134.252;2022-12-18T17:10:27;100720.56;;;-22.80;59.92
46846;BME280;33947;46.804;134.252;2022-12-18T17:13:32;100721.03;;;-22.43;59.17
46846;BME280;33947;46.804;134.252;2022-12-18T17:16:37;100730.22;;;-22.44;57.20
46846;BME280;33947;46.804;134.252;2022-12-18T17:19:41;100747.38;;;-22.32;56.60